Alyeska Resort
Max's Hourly Weather Roundup
ALYESKA_MAX 2/13/2016
Click Here for Graph

        DATE  TIME   Air  Wind  Wind  Wind  BATT   Rel
                    Temp   Spd   Dir  Gust  Volt  Hum%
                      F   MPH   AVG   MPH   AVG   AVG

   2/13/2016 07:00    26    21   100    50 12.85   100
   2/13/2016 06:00    26    23    98    53 12.86   100
   2/13/2016 05:00    27    22   104    41 12.87   100
   2/13/2016 04:00    28    23    94    43 12.89   100
   2/13/2016 03:00    28    15    93    33 12.90   100
   2/13/2016 02:00    28     5   126    21 12.91   100
   2/13/2016 01:00    28     6   140    21 12.92   100
   2/12/2016 24:00    28     6   163    24 12.93   100
   2/12/2016 23:00    29     5   200    16 12.95   100
   2/12/2016 22:00    29     4   237    16 12.96   100
   2/12/2016 21:00    29     6   294    16 12.98   100
   2/12/2016 20:00    30     4   170    20 13.00   100
   2/12/2016 19:00    29     7   170    21 13.03   100
   2/12/2016 18:00    30     7   209    23 13.11   100
   2/12/2016 17:00    31     8   155    37 13.39    98
   2/12/2016 16:00    31    15    56    33 13.75   100
   2/12/2016 15:00    31    12    68    28 13.73   100
   2/12/2016 14:00    30    17    70    43 13.76   100
   2/12/2016 13:00    30     7   116    21 13.82   100
   2/12/2016 12:00    31    10   124    34 13.61   100
   2/12/2016 11:00    30    12   116    41 13.11   100
   2/12/2016 10:00    30     5   134    23 12.92   100
   2/12/2016 09:00    30     9   130    17 12.83   100
   2/12/2016 08:00    30     9    92    21 12.83   100


Click Here for Graph